Time;durP1;ratioP1;P1;durP2;ratioP2;P2;SDS_P1;SDS_P2;PMS_P1;PMS_P2;Temp;Humidity;BMP_temperature;BMP_pressure;BME280_temperature;BME280_humidity;BME280_pressure;Samples;Min_cycle;Max_cycle;Signal;HPM_P1;HPM_P2
2022/05/18 03:32:41;;;;;;;;;;;;;;;4.35;93.29;100063.09;6212343;23;20255;-88
2022/05/18 03:35:08;;;;;;;;;;;;;;;4.97;96.16;100059.59;6216433;23;20320;-89
2022/05/18 03:37:33;;;;;;;;;;;;;;;5.45;99.88;100057.91;6214828;23;19946;-87
2022/05/18 03:39:58;;;;;;;;;;;;;;;5.66;100.00;100061.06;6216361;23;19991;-86
2022/05/18 03:42:26;;;;;;;;;;;;;;;5.25;100.00;100068.78;6215754;23;20029;-89
2022/05/18 03:44:51;;;;;;;;;;;;;;;4.87;99.71;100069.41;6188496;23;20014;-90
2022/05/18 03:47:16;;;;;;;;;;;;;;;5.49;100.00;100064.00;6189321;23;19916;-92
2022/05/18 03:49:42;;;;;;;;;;;;;;;5.83;100.00;100072.13;6190000;23;19991;-89
2022/05/18 03:52:07;;;;;;;;;;;;;;;5.91;100.00;100066.72;6189639;23;19931;-91
2022/05/18 03:54:35;;;;;;;;;;;;;;;5.11;100.00;100070.75;6189078;23;19923;-92
2022/05/18 03:57:01;;;;;;;;;;;;;;;4.88;100.00;100069.38;6189226;23;20236;-92
2022/05/18 03:59:26;;;;;;;;;;;;;;;5.48;100.00;100072.78;6187760;23;19915;-90
2022/05/18 04:01:52;;;;;;;;;;;;;;;5.87;100.00;100078.22;6189197;23;19943;-91
2022/05/18 04:04:46;;;;;;;;;;;;;;;6.06;100.00;100075.25;6214708;23;19908;-93
2022/05/18 04:07:12;;;;;;;;;;;;;;;5.70;100.00;100072.41;6190120;23;20402;-92
2022/05/18 04:09:37;;;;;;;;;;;;;;;6.34;100.00;100071.16;6216011;23;19939;-94
2022/05/18 04:12:02;;;;;;;;;;;;;;;6.66;100.00;100074.88;6189224;23;20347;-90
2022/05/18 04:14:28;;;;;;;;;;;;;;;6.60;100.00;100072.34;6187991;23;19916;-90
2022/05/18 04:16:53;;;;;;;;;;;;;;;5.81;100.00;100075.69;6189191;23;19918;-91
2022/05/18 04:19:18;;;;;;;;;;;;;;;5.57;99.59;100085.75;6189215;23;20399;-93
2022/05/18 04:21:43;;;;;;;;;;;;;;;6.11;100.00;100078.66;6189148;23;19918;-91
2022/05/18 04:24:09;;;;;;;;;;;;;;;6.41;100.00;100081.56;6188813;23;19927;-90
2022/05/18 04:26:34;;;;;;;;;;;;;;;6.13;100.00;100082.13;6189153;23;20231;-91
2022/05/18 04:29:00;;;;;;;;;;;;;;;5.57;100.00;100082.28;6212644;23;19916;-89
2022/05/18 04:31:25;;;;;;;;;;;;;;;5.12;98.71;100087.38;6188610;23;19923;-90
2022/05/18 07:46:02;;;;;;;;;;;;;;;5.85;100.00;100143.09;6208942;22;19990;-90
2022/05/18 07:48:27;;;;;;;;;;;;;;;5.11;100.00;100139.06;6212262;23;19958;-90
2022/05/18 07:50:52;;;;;;;;;;;;;;;4.79;100.00;100132.50;6189438;23;20243;-90
2022/05/18 07:53:18;;;;;;;;;;;;;;;5.40;100.00;100130.72;6216031;23;19912;-90
2022/05/18 07:55:44;;;;;;;;;;;;;;;5.75;100.00;100131.03;6216226;23;19943;-90
2022/05/18 07:58:10;;;;;;;;;;;;;;;6.00;100.00;100129.72;6216054;23;19912;-90
2022/05/18 08:00:36;;;;;;;;;;;;;;;5.35;100.00;100135.19;6214271;23;19912;-90
2022/05/18 08:03:02;;;;;;;;;;;;;;;5.50;100.00;100133.19;6216064;23;19948;-89
2022/05/18 08:05:29;;;;;;;;;;;;;;;5.90;100.00;100136.00;6216093;23;20281;-92
2022/05/18 08:07:54;;;;;;;;;;;;;;;6.12;100.00;100135.66;6215776;23;19966;-90
2022/05/18 08:15:53;;;;;;;;;;;;;;;8.07;100.00;100130.28;6218204;23;19922;-82
2022/05/18 08:18:19;;;;;;;;;;;;;;;7.34;100.00;100123.38;6215557;23;19912;-82
2022/05/18 08:20:44;;;;;;;;;;;;;;;7.10;100.00;100130.09;6215665;23;19982;-84
2022/05/18 08:23:10;;;;;;;;;;;;;;;6.42;100.00;100122.78;6189388;23;19997;-82
2022/05/18 08:25:35;;;;;;;;;;;;;;;5.94;100.00;100124.53;6215553;23;19916;-84
2022/05/18 08:28:01;;;;;;;;;;;;;;;9.74;100.00;100119.97;6188731;23;19922;-82
2022/05/18 08:30:30;;;;;;;;;;;;;;;11.32;100.00;100115.88;6213779;23;19916;-85
2022/05/18 08:32:56;;;;;;;;;;;;;;;11.54;100.00;100115.03;6213589;23;19986;-86
2022/05/18 08:35:21;;;;;;;;;;;;;;;13.14;100.00;100115.00;6213911;23;19919;-83
2022/05/18 08:37:50;;;;;;;;;;;;;;;13.49;100.00;100118.59;6215436;23;19912;-94
2022/05/18 08:40:28;;;;;;;;;;;;;;;13.41;100.00;100113.66;6213702;23;19912;-89
2022/05/18 08:43:01;;;;;;;;;;;;;;;14.46;100.00;100108.28;6214168;23;20252;-86
2022/05/18 08:45:31;;;;;;;;;;;;;;;13.45;100.00;100114.41;6187327;23;19916;-94
2022/05/18 08:48:09;;;;;;;;;;;;;;;11.62;100.00;100118.22;6215819;23;20179;-95
2022/05/18 08:50:39;;;;;;;;;;;;;;;10.90;100.00;100122.00;6214666;23;19939;-90
2022/05/18 08:53:17;;;;;;;;;;;;;;;10.21;100.00;100114.81;6214383;23;19916;-93
2022/05/18 08:55:51;;;;;;;;;;;;;;;10.28;100.00;100118.09;6215734;23;19974;-91
2022/05/18 08:58:27;;;;;;;;;;;;;;;10.04;100.00;100117.19;6215475;23;20328;-90
2022/05/18 09:00:58;;;;;;;;;;;;;;;9.71;100.00;100120.09;6214040;23;19991;-89
2022/05/18 09:03:37;;;;;;;;;;;;;;;9.92;100.00;100121.13;6216302;23;19916;-92
2022/05/18 09:06:05;;;;;;;;;;;;;;;9.86;100.00;100111.63;6189781;23;19999;-89
2022/05/18 09:08:35;;;;;;;;;;;;;;;9.35;100.00;100113.34;6216242;23;19998;-90
2022/05/18 09:11:03;;;;;;;;;;;;;;;9.69;100.00;100120.13;6214066;23;20030;-90
2022/05/18 09:13:29;;;;;;;;;;;;;;;9.79;100.00;100107.44;6215825;23;19908;-93
2022/05/18 09:15:55;;;;;;;;;;;;;;;9.10;100.00;100113.25;6187601;23;19912;-91
2022/05/18 09:18:26;;;;;;;;;;;;;;;9.41;100.00;100112.25;6214336;23;20308;-90
2022/05/18 09:21:10;;;;;;;;;;;;;;;9.62;100.00;100111.53;6215296;23;20316;-90
2022/05/18 09:23:41;;;;;;;;;;;;;;;9.03;100.00;100111.69;6215462;23;19986;-92
2022/05/18 09:26:12;;;;;;;;;;;;;;;9.44;100.00;100109.50;6215535;23;19908;-89
2022/05/18 09:28:43;;;;;;;;;;;;;;;9.68;100.00;100101.66;6213649;23;19911;-93
2022/05/18 09:31:21;;;;;;;;;;;;;;;9.35;100.00;100108.03;6213535;23;19963;-92
2022/05/18 09:34:02;;;;;;;;;;;;;;;9.36;100.00;100108.91;6189038;23;20359;-91
2022/05/18 09:36:27;;;;;;;;;;;;;;;9.59;100.00;100105.50;6214018;23;20041;-92
2022/05/18 09:38:58;;;;;;;;;;;;;;;9.54;100.00;100103.00;6214137;23;19954;-92
2022/05/18 09:41:27;;;;;;;;;;;;;;;9.19;100.00;100104.13;6213825;23;19958;-91
2022/05/18 09:43:55;;;;;;;;;;;;;;;9.52;100.00;100104.81;6212381;23;19912;-91
2022/05/18 09:46:24;;;;;;;;;;;;;;;9.68;100.00;100104.31;6213675;23;19911;-90
2022/05/18 09:49:13;;;;;;;;;;;;;;;9.11;100.00;100096.47;6215318;23;19986;-91
2022/05/18 09:51:38;;;;;;;;;;;;;;;9.48;100.00;100100.56;6176180;23;19912;-91
2022/05/18 09:54:04;;;;;;;;;;;;;;;9.69;100.00;100100.75;6215263;23;19918;-91
2022/05/18 09:56:32;;;;;;;;;;;;;;;9.34;100.00;100102.81;6215132;23;19915;-92
2022/05/18 09:59:03;;;;;;;;;;;;;;;9.33;100.00;100101.06;6212093;23;20239;-91
2022/05/18 10:07:28;;;;;;;;;;;;;;;9.25;100.00;100091.63;6215044;23;20403;-91
2022/05/18 10:10:14;;;;;;;;;;;;;;;9.62;100.00;100085.09;6213509;23;19916;-91
2022/05/18 10:12:43;;;;;;;;;;;;;;;9.55;100.00;100093.28;6213647;23;19919;-89
2022/05/18 10:15:19;;;;;;;;;;;;;;;9.05;100.00;100088.75;6212000;23;19916;-90
2022/05/18 10:17:46;;;;;;;;;;;;;;;9.49;100.00;100089.03;6188088;23;20308;-89
2022/05/18 10:20:25;;;;;;;;;;;;;;;9.58;100.00;100083.44;6213546;23;19916;-91
2022/05/18 10:22:52;;;;;;;;;;;;;;;9.08;100.00;100086.00;6212959;23;21663;-89
2022/05/18 10:25:34;;;;;;;;;;;;;;;9.43;100.00;100084.00;6213104;23;19915;-89
2022/05/18 10:28:02;;;;;;;;;;;;;;;9.60;100.00;100080.75;6213209;23;19916;-94
2022/05/18 10:30:33;;;;;;;;;;;;;;;9.08;100.00;100078.94;6211767;23;19912;-90
2022/05/18 10:33:02;;;;;;;;;;;;;;;9.25;100.00;100086.31;6213599;23;20306;-88
2022/05/18 10:35:51;;;;;;;;;;;;;;;9.53;100.00;100081.91;6213690;23;19912;-89
2022/05/18 10:38:16;;;;;;;;;;;;;;;9.09;100.00;100074.50;6177260;23;20312;-93
2022/05/18 10:40:52;;;;;;;;;;;;;;;9.15;100.00;100069.00;6214600;23;19916;-89
2022/05/18 10:43:17;;;;;;;;;;;;;;;9.49;100.00;100067.88;6188568;23;19931;-91
2022/05/18 10:45:52;;;;;;;;;;;;;;;9.56;100.00;100064.13;6213193;23;19970;-89
2022/05/18 10:48:18;;;;;;;;;;;;;;;8.94;100.00;100053.88;6214324;23;19998;-90
2022/05/18 10:50:45;;;;;;;;;;;;;;;9.41;100.00;100051.41;6214491;23;19926;-90
2022/05/18 10:53:13;;;;;;;;;;;;;;;9.60;100.00;100052.50;6214931;23;19923;-88
2022/05/18 10:56:00;;;;;;;;;;;;;;;9.28;100.00;100048.31;6214410;23;19918;-90
2022/05/18 10:58:28;;;;;;;;;;;;;;;9.32;100.00;100036.75;6196645;23;19912;-89
2022/05/18 11:01:02;;;;;;;;;;;;;;;9.57;100.00;100039.41;6214850;23;19990;-92
2022/05/18 11:03:47;;;;;;;;;;;;;;;9.23;100.00;100032.59;6215139;23;19912;-92
2022/05/18 11:06:27;;;;;;;;;;;;;;;9.29;100.00;100030.69;6215368;23;20213;-90
2022/05/18 11:08:52;;;;;;;;;;;;;;;9.60;100.00;100026.06;6215573;23;20399;-89
2022/05/18 11:11:18;;;;;;;;;;;;;;;9.42;100.00;100019.63;6215584;23;19911;-89
2022/05/18 11:13:51;;;;;;;;;;;;;;;9.22;100.00;100022.09;6214276;23;19966;-89
2022/05/18 11:16:16;;;;;;;;;;;;;;;9.52;100.00;100020.16;6215490;23;19994;-88
2022/05/18 11:18:48;;;;;;;;;;;;;;;9.54;100.00;100022.75;6215059;23;20324;-91
2022/05/18 11:21:22;;;;;;;;;;;;;;;9.02;100.00;100015.69;6215381;23;19970;-90
2022/05/18 11:23:53;;;;;;;;;;;;;;;9.46;100.00;100015.09;6214566;23;19912;-91
2022/05/18 11:26:24;;;;;;;;;;;;;;;9.63;100.00;100014.50;6216429;23;19916;-90
2022/05/18 11:28:52;;;;;;;;;;;;;;;9.26;100.00;100014.00;6215000;23;19915;-92
2022/05/18 11:31:20;;;;;;;;;;;;;;;9.37;100.00;100016.28;6216316;23;19938;-90
2022/05/18 11:33:53;;;;;;;;;;;;;;;9.64;100.00;100014.47;6216321;23;19916;-89
2022/05/18 11:36:25;;;;;;;;;;;;;;;9.46;100.00;100015.09;6216739;23;19936;-91
2022/05/18 11:39:11;;;;;;;;;;;;;;;9.23;100.00;100005.31;6216169;23;20316;-92
2022/05/18 11:41:36;;;;;;;;;;;;;;;9.55;100.00;100009.47;6215130;23;19916;-93
2022/05/18 11:44:04;;;;;;;;;;;;;;;9.58;100.00;100008.53;6215065;23;20187;-92
2022/05/18 11:46:33;;;;;;;;;;;;;;;9.14;100.00;100005.63;6215836;23;19932;-89
2022/05/18 11:49:10;;;;;;;;;;;;;;;9.57;100.00;100005.03;6216379;23;20336;-93
2022/05/18 11:51:44;;;;;;;;;;;;;;;9.68;100.00;100004.63;6216042;23;20255;-90
2022/05/18 11:54:28;;;;;;;;;;;;;;;9.26;100.00;99998.13;6216496;23;19912;-89
2022/05/18 11:57:04;;;;;;;;;;;;;;;9.52;100.00;100003.44;6215096;23;19919;-90
2022/05/18 12:00:08;;;;;;;;;;;;;;;9.71;100.00;99998.38;6213059;23;19912;-91
2022/05/18 12:02:37;;;;;;;;;;;;;;;9.35;100.00;99990.78;6214716;23;20038;-90
2022/05/18 12:05:21;;;;;;;;;;;;;;;9.49;100.00;99996.47;6215326;23;20324;-91
2022/05/18 12:07:58;;;;;;;;;;;;;;;9.75;100.00;99989.41;6213832;23;19920;-88
2022/05/18 12:10:31;;;;;;;;;;;;;;;9.77;100.00;99979.63;6214806;23;19919;-93
2022/05/18 12:13:06;;;;;;;;;;;;;;;9.44;100.00;99987.84;6214749;23;20359;-92
2022/05/18 12:15:31;;;;;;;;;;;;;;;9.67;100.00;99978.22;6213147;23;19916;-89
2022/05/18 12:18:09;;;;;;;;;;;;;;;9.67;100.00;99980.88;6214351;23;19918;-89
2022/05/18 12:20:53;;;;;;;;;;;;;;;9.00;100.00;99977.00;6214721;23;20240;-90
2022/05/18 12:23:19;;;;;;;;;;;;;;;9.40;100.00;99983.59;6216361;23;19912;-92
2022/05/18 12:25:45;;;;;;;;;;;;;;;9.62;100.00;99976.63;6216217;23;19912;-89
2022/05/18 12:28:12;;;;;;;;;;;;;;;9.15;100.00;99981.78;6216013;23;19969;-91
2022/05/18 12:30:38;;;;;;;;;;;;;;;9.26;100.00;99981.41;6213095;23;19916;-93
2022/05/18 12:33:04;;;;;;;;;;;;;;;9.55;100.00;99983.03;6216273;23;19911;-90
2022/05/18 12:35:33;;;;;;;;;;;;;;;9.54;100.00;99980.44;6216350;23;19919;-89
2022/05/18 12:37:58;;;;;;;;;;;;;;;9.17;100.00;99972.00;6216750;23;19939;-91
2022/05/18 12:40:32;;;;;;;;;;;;;;;9.58;100.00;99972.34;6214486;23;20240;-92
2022/05/18 12:43:04;;;;;;;;;;;;;;;9.70;100.00;99975.47;6215867;23;19912;-90
2022/05/18 12:45:36;;;;;;;;;;;;;;;8.94;100.00;99971.94;6212726;23;20332;-89
2022/05/18 12:48:07;;;;;;;;;;;;;;;9.37;100.00;99973.97;6214241;23;19927;-90
2022/05/18 12:50:39;;;;;;;;;;;;;;;9.67;100.00;99970.28;6215405;23;19919;-89
2022/05/18 12:53:13;;;;;;;;;;;;;;;9.29;100.00;99972.53;6188856;23;19912;-90
2022/05/18 12:55:39;;;;;;;;;;;;;;;9.23;100.00;99968.31;6215269;23;19919;-89
2022/05/18 12:58:11;;;;;;;;;;;;;;;9.57;100.00;99965.34;6214289;23;19940;-89
2022/05/18 13:00:39;;;;;;;;;;;;;;;9.73;100.00;99968.31;6211458;23;19911;-91
2022/05/18 13:03:07;;;;;;;;;;;;;;;9.12;100.00;99973.09;6213806;23;20202;-92
2022/05/18 13:05:40;;;;;;;;;;;;;;;9.48;100.00;99970.97;6213127;23;19916;-91
2022/05/18 13:08:35;;;;;;;;;;;;;;;9.66;100.00;99965.94;6214418;23;19994;-91
2022/05/18 13:11:27;;;;;;;;;;;;;;;9.17;100.00;99971.16;6215711;23;19923;-91
2022/05/18 13:14:02;;;;;;;;;;;;;;;9.52;100.00;99977.00;6213380;23;19912;-91
2022/05/18 13:16:36;;;;;;;;;;;;;;;9.70;100.00;99970.16;6215332;23;20339;-89
2022/05/18 13:19:02;;;;;;;;;;;;;;;9.42;100.00;99974.66;6214380;23;19920;-92
2022/05/18 13:21:28;;;;;;;;;;;;;;;9.29;100.00;99968.09;6216099;23;20341;-92
2022/05/18 13:24:01;;;;;;;;;;;;;;;9.52;100.00;99961.97;6215760;23;19912;-89
2022/05/18 13:26:26;;;;;;;;;;;;;;;9.66;100.00;99958.84;6189427;23;19912;-90
2022/05/18 13:28:53;;;;;;;;;;;;;;;9.07;100.00;99965.31;6213313;23;20243;-89
2022/05/18 13:31:18;;;;;;;;;;;;;;;9.53;100.00;99958.41;6216519;23;19919;-89
2022/05/18 13:34:02;;;;;;;;;;;;;;;9.76;100.00;99960.22;6214850;23;19912;-93
2022/05/18 13:36:31;;;;;;;;;;;;;;;9.44;100.00;99948.16;6215044;23;19942;-92
2022/05/18 13:38:57;;;;;;;;;;;;;;;9.33;100.00;99945.88;6189431;23;19912;-91
2022/05/18 13:41:23;;;;;;;;;;;;;;;9.63;100.00;99948.38;6189822;23;19912;-90
2022/05/18 13:43:48;;;;;;;;;;;;;;;9.82;100.00;99940.63;6214679;23;19919;-91
2022/05/18 13:46:15;;;;;;;;;;;;;;;9.21;100.00;99939.28;6189381;23;20248;-92
2022/05/18 13:48:42;;;;;;;;;;;;;;;9.49;100.00;99935.63;6215407;23;19916;-90
2022/05/18 13:51:10;;;;;;;;;;;;;;;9.77;100.00;99934.63;6188984;23;19939;-92
2022/05/18 13:53:39;;;;;;;;;;;;;;;9.86;100.00;99928.13;6214191;23;20313;-91
2022/05/18 13:56:08;;;;;;;;;;;;;;;9.30;100.00;99930.13;6188929;23;19919;-93
2022/05/18 13:58:39;;;;;;;;;;;;;;;9.68;100.00;99921.75;6215988;23;20304;-92
2022/05/18 14:01:11;;;;;;;;;;;;;;;9.82;100.00;99927.38;6213532;23;20217;-93
2022/05/18 14:03:38;;;;;;;;;;;;;;;9.29;99.75;99925.78;6189104;23;19919;-92
2022/05/18 14:06:08;;;;;;;;;;;;;;;9.38;100.00;99916.66;6213915;23;19916;-90
2022/05/18 14:08:38;;;;;;;;;;;;;;;9.64;100.00;99921.00;6213451;23;19912;-94
2022/05/18 14:11:06;;;;;;;;;;;;;;;9.82;100.00;99925.59;6215597;23;19927;-90
2022/05/18 14:13:33;;;;;;;;;;;;;;;9.04;99.07;99923.97;6215383;23;19916;-91
2022/05/18 14:15:58;;;;;;;;;;;;;;;9.52;100.00;99924.94;6213707;23;20003;-93
2022/05/18 14:18:30;;;;;;;;;;;;;;;9.68;100.00;99921.75;6214147;23;20287;-91
2022/05/18 14:20:57;;;;;;;;;;;;;;;9.05;98.06;99911.66;6215320;23;19926;-90
2022/05/18 14:23:22;;;;;;;;;;;;;;;9.26;99.87;99904.75;6216082;23;19989;-93
2022/05/18 14:25:52;;;;;;;;;;;;;;;9.55;100.00;99914.25;6215773;23;19916;-92
2022/05/18 14:28:21;;;;;;;;;;;;;;;9.58;99.59;99910.66;6188976;23;19915;-93
2022/05/18 14:30:47;;;;;;;;;;;;;;;8.91;97.75;99912.09;6189071;23;20251;-92
2022/05/18 14:33:22;;;;;;;;;;;;;;;9.32;99.79;99903.63;6218067;23;19936;-89
2022/05/18 14:35:50;;;;;;;;;;;;;;;9.61;100.00;99910.53;6216948;23;19916;-90
2022/05/18 14:38:27;;;;;;;;;;;;;;;9.03;98.03;99897.59;6215462;23;20244;-89
2022/05/18 14:40:53;;;;;;;;;;;;;;;9.26;99.33;99897.66;6216952;23;19912;-88
2022/05/18 14:43:24;;;;;;;;;;;;;;;9.48;99.53;99896.91;6217359;23;19956;-92
2022/05/18 14:45:54;;;;;;;;;;;;;;;9.12;97.63;99896.44;6216401;23;19927;-89
2022/05/18 14:48:34;;;;;;;;;;;;;;;9.20;99.52;99892.59;6215618;23;19920;-89
2022/05/18 14:51:18;;;;;;;;;;;;;;;10.82;100.00;99883.72;6216396;23;19912;-94
2022/05/18 14:53:51;;;;;;;;;;;;;;;10.06;100.00;99885.88;6216821;23;20320;-90
2022/05/18 14:56:17;;;;;;;;;;;;;;;9.91;100.00;99889.13;6216951;23;19919;-89
2022/05/18 14:58:44;;;;;;;;;;;;;;;10.13;100.00;99883.84;6216007;23;19947;-89
2022/05/18 15:01:33;;;;;;;;;;;;;;;9.82;100.00;99883.25;6214551;23;19916;-92
2022/05/18 15:04:10;;;;;;;;;;;;;;;9.83;100.00;99876.19;6200451;23;20407;-90
2022/05/18 15:06:35;;;;;;;;;;;;;;;10.11;100.00;99886.56;6216931;23;19912;-93
2022/05/18 15:09:02;;;;;;;;;;;;;;;9.93;100.00;99877.56;6190572;23;20109;-90
2022/05/18 15:11:48;;;;;;;;;;;;;;;9.90;100.00;99875.03;6215707;23;19915;-92
2022/05/18 15:14:13;;;;;;;;;;;;;;;10.09;100.00;99877.81;6215260;23;19918;-90
2022/05/18 15:16:40;;;;;;;;;;;;;;;10.11;100.00;99877.75;6216985;23;20306;-90
2022/05/18 15:19:13;;;;;;;;;;;;;;;9.95;100.00;99881.00;6216687;23;19940;-92
2022/05/18 15:21:41;;;;;;;;;;;;;;;10.15;100.00;99872.28;6215360;23;19966;-94
2022/05/18 15:24:17;;;;;;;;;;;;;;;10.22;100.00;99877.34;6216852;23;19957;-90
2022/05/18 15:26:50;;;;;;;;;;;;;;;9.99;100.00;99869.38;6217188;23;19919;-92
2022/05/18 15:29:33;;;;;;;;;;;;;;;10.21;100.00;99873.84;6213450;23;19912;-92
2022/05/18 15:32:10;;;;;;;;;;;;;;;10.16;100.00;99867.84;6214699;23;19918;-92
2022/05/18 15:34:38;;;;;;;;;;;;;;;10.00;100.00;99868.47;6214369;23;20279;-91
2022/05/18 15:37:04;;;;;;;;;;;;;;;10.28;100.00;99864.72;6188938;23;19912;-90
2022/05/18 15:39:32;;;;;;;;;;;;;;;10.25;100.00;99872.78;6216009;23;19982;-91
2022/05/18 15:41:58;;;;;;;;;;;;;;;10.00;100.00;99868.47;6215597;23;20002;-89
2022/05/18 15:44:26;;;;;;;;;;;;;;;10.26;100.00;99863.91;6214001;23;19988;-90
2022/05/18 15:46:53;;;;;;;;;;;;;;;10.28;100.00;99862.06;6215811;23;19983;-89
2022/05/18 15:49:22;;;;;;;;;;;;;;;9.97;100.00;99862.41;6216687;23;19923;-89
2022/05/18 15:51:52;;;;;;;;;;;;;;;10.25;100.00;99859.53;6189368;23;19918;-91
2022/05/18 15:54:20;;;;;;;;;;;;;;;10.30;100.00;99862.84;6215801;23;20027;-89
2022/05/18 15:56:45;;;;;;;;;;;;;;;9.97;100.00;99863.28;6215420;23;19916;-91
2022/05/18 15:59:10;;;;;;;;;;;;;;;10.18;100.00;99861.56;6214755;23;19966;-92
2022/05/18 16:01:36;;;;;;;;;;;;;;;10.49;100.00;99857.69;6189452;23;19912;-92
2022/05/18 16:04:01;;;;;;;;;;;;;;;9.96;100.00;99860.69;6215230;23;19939;-93
2022/05/18 16:06:29;;;;;;;;;;;;;;;10.25;100.00;99861.31;6215630;23;19911;-92
2022/05/18 16:08:58;;;;;;;;;;;;;;;10.46;100.00;99862.25;6214633;23;19916;-89
2022/05/18 16:11:23;;;;;;;;;;;;;;;9.96;100.00;99856.25;6189157;23;19916;-91
2022/05/18 16:13:48;;;;;;;;;;;;;;;10.26;100.00;99855.97;6214288;23;19912;-94
2022/05/18 16:16:16;;;;;;;;;;;;;;;10.42;100.00;99858.88;6189395;23;19923;-90
2022/05/18 16:18:41;;;;;;;;;;;;;;;9.91;100.00;99858.22;6215837;23;20063;-90
2022/05/18 16:21:08;;;;;;;;;;;;;;;10.20;100.00;99858.00;6189599;23;19939;-91
2022/05/18 16:23:34;;;;;;;;;;;;;;;10.41;100.00;99856.31;6216440;23;19919;-92
2022/05/18 16:26:00;;;;;;;;;;;;;;;9.99;100.00;99855.28;6216671;23;19912;-93
2022/05/18 16:28:27;;;;;;;;;;;;;;;10.16;100.00;99862.53;6214922;23;20420;-89
2022/05/18 16:30:55;;;;;;;;;;;;;;;10.35;100.00;99850.34;6212556;23;19918;-89
2022/05/18 16:33:23;;;;;;;;;;;;;;;10.09;100.00;99855.78;6213737;23;19916;-92
2022/05/18 16:35:49;;;;;;;;;;;;;;;10.23;100.00;99847.25;6213903;23;19916;-90
2022/05/18 16:38:14;;;;;;;;;;;;;;;10.40;100.00;99854.56;6188665;23;19937;-89
2022/05/18 16:40:39;;;;;;;;;;;;;;;10.23;100.00;99848.16;6214748;23;19944;-89
2022/05/18 16:43:05;;;;;;;;;;;;;;;10.20;100.00;99847.41;6214899;23;19916;-88
2022/05/18 16:45:30;;;;;;;;;;;;;;;10.36;100.00;99844.09;6213381;23;19986;-89
2022/05/18 16:47:56;;;;;;;;;;;;;;;10.39;100.00;99840.47;6214646;23;19920;-90
2022/05/18 16:50:22;;;;;;;;;;;;;;;10.10;100.00;99847.78;6188221;23;19920;-92
2022/05/18 16:52:47;;;;;;;;;;;;;;;10.40;100.00;99839.53;6187476;23;20236;-91
2022/05/18 16:55:12;;;;;;;;;;;;;;;10.58;100.00;99840.56;6214761;23;19912;-89
2022/05/18 16:57:38;;;;;;;;;;;;;;;10.06;100.00;99842.66;6215202;23;19916;-92
2022/05/18 17:00:05;;;;;;;;;;;;;;;10.36;100.00;99828.19;6213121;23;19999;-91
2022/05/18 17:02:30;;;;;;;;;;;;;;;10.54;100.00;99838.97;6213020;23;19916;-91
2022/05/18 17:08:43;;;;;;;;;;;;;;;10.23;100.00;99832.25;6164625;23;19912;-90
2022/05/18 17:10:38;;;;;;;;;;;;;;;11.78;100.00;99829.91;6214261;23;19912;-91
2022/05/18 17:13:03;;;;;;;;;;;;;;;11.02;100.00;99834.28;6214247;23;19916;-89
2022/05/18 17:15:29;;;;;;;;;;;;;;;10.68;100.00;99827.78;6212991;23;20359;-95
2022/05/18 17:17:54;;;;;;;;;;;;;;;10.84;100.00;99835.94;6187822;23;19912;-93
2022/05/18 17:20:19;;;;;;;;;;;;;;;10.86;100.00;99837.59;6187481;23;19912;-94
2022/05/18 17:22:45;;;;;;;;;;;;;;;10.33;100.00;99830.97;6214347;23;19912;-89
2022/05/18 17:25:10;;;;;;;;;;;;;;;10.70;100.00;99832.06;6213967;23;20002;-90
2022/05/18 17:27:37;;;;;;;;;;;;;;;10.87;100.00;99827.88;6187145;23;20332;-91
2022/05/18 17:30:02;;;;;;;;;;;;;;;10.48;100.00;99828.63;6210762;23;19916;-90
2022/05/18 17:32:29;;;;;;;;;;;;;;;10.56;100.00;99829.16;6214092;23;19942;-91
2022/05/18 17:34:56;;;;;;;;;;;;;;;10.76;100.00;99832.75;6214288;23;19912;-91
2022/05/18 17:37:21;;;;;;;;;;;;;;;10.65;100.00;99831.41;6212523;23;19965;-90
2022/05/18 17:39:46;;;;;;;;;;;;;;;10.46;100.00;99827.81;6213684;23;19912;-89
2022/05/18 17:42:12;;;;;;;;;;;;;;;10.71;100.00;99831.16;6213818;23;19912;-90
2022/05/18 17:44:37;;;;;;;;;;;;;;;10.83;100.00;99828.91;6212329;23;19908;-90
2022/05/18 17:47:03;;;;;;;;;;;;;;;10.30;100.00;99831.06;6213881;23;20328;-89
2022/05/18 17:49:30;;;;;;;;;;;;;;;10.59;100.00;99828.19;6213503;23;19919;-89
2022/05/18 17:51:57;;;;;;;;;;;;;;;10.76;100.00;99823.03;6213618;23;19965;-92
2022/05/18 17:54:22;;;;;;;;;;;;;;;10.30;100.00;99823.13;6214082;23;19974;-91
2022/05/18 17:56:48;;;;;;;;;;;;;;;10.54;100.00;99828.38;6213800;23;19951;-89
2022/05/18 17:59:15;;;;;;;;;;;;;;;10.77;100.00;99827.41;6212605;23;20002;-94
2022/05/18 18:01:40;;;;;;;;;;;;;;;10.89;100.00;99833.94;6213877;23;20328;-90
2022/05/18 18:04:06;;;;;;;;;;;;;;;10.78;100.00;99833.56;6213371;23;19935;-90
2022/05/18 18:06:31;;;;;;;;;;;;;;;10.88;100.00;99826.91;6187253;23;20339;-90
2022/05/18 18:08:57;;;;;;;;;;;;;;;10.61;100.00;99829.84;6214143;23;19912;-91
2022/05/18 18:11:22;;;;;;;;;;;;;;;12.69;100.00;99822.84;6215062;23;19916;-87
2022/05/18 18:13:47;;;;;;;;;;;;;;;11.46;100.00;99831.44;6212755;23;20046;-87
2022/05/18 18:16:14;;;;;;;;;;;;;;;11.13;100.00;99831.16;6213952;23;19912;-88
2022/05/18 18:18:42;;;;;;;;;;;;;;;10.65;100.00;99827.91;6186941;23;20316;-86
2022/05/18 18:21:07;;;;;;;;;;;;;;;10.78;100.00;99837.06;6213382;23;19920;-88
2022/05/18 18:23:37;;;;;;;;;;;;;;;10.86;100.00;99836.72;6212022;23;19920;-86
2022/05/18 18:26:07;;;;;;;;;;;;;;;10.20;100.00;99836.81;6213714;23;19912;-87
2022/05/18 18:28:33;;;;;;;;;;;;;;;10.59;100.00;99836.97;6213411;23;19916;-86
2022/05/18 18:30:59;;;;;;;;;;;;;;;10.70;100.00;99831.22;6210450;23;19912;-87
2022/05/18 18:33:24;;;;;;;;;;;;;;;10.29;100.00;99837.31;6214074;23;19911;-87
2022/05/18 18:35:50;;;;;;;;;;;;;;;10.13;100.00;99837.06;6213551;23;20351;-86
2022/05/18 18:38:20;;;;;;;;;;;;;;;10.49;100.00;99831.19;6213504;23;19944;-86
2022/05/18 18:40:48;;;;;;;;;;;;;;;10.66;100.00;99825.19;6211713;23;19927;-87
2022/05/18 18:43:16;;;;;;;;;;;;;;;10.13;100.00;99831.78;6212390;23;20312;-87
2022/05/18 18:48:25;;;;;;;;;;;;;;;11.82;100.00;99831.50;6213032;23;19966;-87
2022/05/18 18:56:18;;;;;;;;;;;;;;;10.97;100.00;99837.13;6213374;23;19923;-87
2022/05/18 18:58:44;;;;;;;;;;;;;;;10.59;100.00;99838.78;6212901;23;20275;-88
2022/05/18 19:01:09;;;;;;;;;;;;;;;10.44;100.00;99845.59;6213125;23;19963;-87
2022/05/18 19:03:34;;;;;;;;;;;;;;;10.72;100.00;99840.84;6177520;23;19938;-86
2022/05/18 19:06:00;;;;;;;;;;;;;;;10.79;100.00;99846.75;6213453;23;19916;-87
2022/05/18 19:08:25;;;;;;;;;;;;;;;10.25;100.00;99846.28;6213146;23;20335;-87
2022/05/18 19:10:52;;;;;;;;;;;;;;;9.93;100.00;99851.09;6212487;23;19912;-87
2022/05/18 19:13:17;;;;;;;;;;;;;;;9.82;100.00;99850.63;6213243;23;19912;-87
2022/05/18 19:15:43;;;;;;;;;;;;;;;9.99;100.00;99848.19;6208838;23;19919;-87
2022/05/18 19:18:08;;;;;;;;;;;;;;;10.39;100.00;99852.84;6214222;23;19912;-87
2022/05/18 19:20:37;;;;;;;;;;;;;;;10.59;100.00;99854.66;6187769;23;19983;-87
2022/05/18 19:23:03;;;;;;;;;;;;;;;10.12;100.00;99858.31;6214653;23;19995;-86
2022/05/18 19:25:30;;;;;;;;;;;;;;;9.86;100.00;99851.38;6214784;23;20005;-86
2022/05/18 19:27:57;;;;;;;;;;;;;;;9.67;100.00;99856.50;6213425;23;19916;-84
2022/05/18 19:30:23;;;;;;;;;;;;;;;9.65;99.68;99856.56;6213295;23;19951;-86
2022/05/18 19:32:53;;;;;;;;;;;;;;;10.10;100.00;99862.78;6213065;23;20002;-86
2022/05/18 19:35:18;;;;;;;;;;;;;;;10.35;100.00;99868.88;6214784;23;19987;-88
2022/05/18 19:37:44;;;;;;;;;;;;;;;10.21;100.00;99865.91;6213521;23;19944;-85
2022/05/18 19:40:10;;;;;;;;;;;;;;;9.87;100.00;99861.91;6212715;23;19916;-88
2022/05/18 19:42:37;;;;;;;;;;;;;;;9.61;100.00;99869.06;6214177;23;20244;-87
2022/05/18 19:45:04;;;;;;;;;;;;;;;9.54;100.00;99867.56;6213401;23;20387;-87
2022/05/18 19:47:32;;;;;;;;;;;;;;;9.50;99.54;99878.31;6212590;23;19920;-88
2022/05/18 19:49:58;;;;;;;;;;;;;;;9.94;100.00;99871.34;6180127;23;19912;-86
2022/05/18 19:52:26;;;;;;;;;;;;;;;10.72;100.00;99872.66;6155275;23;20014;-87
2022/05/18 19:54:51;;;;;;;;;;;;;;;10.40;100.00;99875.75;6181261;23;19951;-86
2022/05/18 19:57:18;;;;;;;;;;;;;;;9.64;100.00;99874.22;6180876;23;20326;-86